Terminal Aerodrome Forecast
Issued by NWS

Home | Current Version | Previous Version | Text Only | Print | Product List | Glossary On
Versions: 1 2 3 4 5 6 7 8 9 10 11 12 13 14 15 16 17
000
FTUS46 KPDT 271120
TAFALW
TAF
KALW 271120Z 2712/2812 18014KT P6SM BKN080 BKN200
     FM271500 21014G20KT P6SM SCT080 BKN200
     FM280000 23011KT P6SM SCT100 BKN200
     FM280400 19010KT P6SM SCT100 BKN200=

USA.gov is the U.S. government's official web portal to all federal, state and local government web resources and services.